sensor_id;sensor_type;location;lat;lon;timestamp;temperature;humidity
22674;DHT22;11504;43.334;21.918;2022-08-25T00:00:55;22.4;100.0
22674;DHT22;11504;43.334;21.918;2022-08-25T00:05:32;22.2;100.0
22674;DHT22;11504;43.334;21.918;2022-08-25T00:10:09;22.2;100.0
22674;DHT22;11504;43.334;21.918;2022-08-25T00:14:47;22.2;100.0
22674;DHT22;11504;43.334;21.918;2022-08-25T00:19:28;22.1;100.0
22674;DHT22;11504;43.334;21.918;2022-08-25T00:24:15;22.1;100.0
22674;DHT22;11504;43.334;21.918;2022-08-25T00:28:57;22.0;100.0
22674;DHT22;11504;43.334;21.918;2022-08-25T00:33:34;22.0;100.0
22674;DHT22;11504;43.334;21.918;2022-08-25T00:38:11;22.0;100.0
22674;DHT22;11504;43.334;21.918;2022-08-25T00:42:48;22.0;100.0
22674;DHT22;11504;43.334;21.918;2022-08-25T00:47:25;22.0;100.0
22674;DHT22;11504;43.334;21.918;2022-08-25T00:52:06;22.0;100.0
22674;DHT22;11504;43.334;21.918;2022-08-25T00:56:58;22.0;100.0
22674;DHT22;11504;43.334;21.918;2022-08-25T01:01:40;22.0;100.0
22674;DHT22;11504;43.334;21.918;2022-08-25T01:06:18;22.0;100.0
22674;DHT22;11504;43.334;21.918;2022-08-25T01:10:57;22.0;100.0
22674;DHT22;11504;43.334;21.918;2022-08-25T01:15:45;22.0;100.0
22674;DHT22;11504;43.334;21.918;2022-08-25T01:20:32;22.0;100.0
22674;DHT22;11504;43.334;21.918;2022-08-25T01:25:21;22.0;100.0
22674;DHT22;11504;43.334;21.918;2022-08-25T01:30:45;22.0;100.0
22674;DHT22;11504;43.334;21.918;2022-08-25T01:35:24;22.0;100.0
22674;DHT22;11504;43.334;21.918;2022-08-25T01:40:03;22.0;100.0
22674;DHT22;11504;43.334;21.918;2022-08-25T01:44:47;22.0;100.0
22674;DHT22;11504;43.334;21.918;2022-08-25T01:49:25;21.9;100.0
22674;DHT22;11504;43.334;21.918;2022-08-25T01:54:04;21.9;100.0
22674;DHT22;11504;43.334;21.918;2022-08-25T01:58:44;21.8;100.0
22674;DHT22;11504;43.334;21.918;2022-08-25T02:03:25;21.8;100.0
22674;DHT22;11504;43.334;21.918;2022-08-25T02:08:07;21.8;100.0
22674;DHT22;11504;43.334;21.918;2022-08-25T02:12:46;21.8;100.0
22674;DHT22;11504;43.334;21.918;2022-08-25T02:17:23;21.7;100.0
22674;DHT22;11504;43.334;21.918;2022-08-25T02:22:00;21.7;100.0
22674;DHT22;11504;43.334;21.918;2022-08-25T02:26:40;21.7;100.0
22674;DHT22;11504;43.334;21.918;2022-08-25T02:31:20;21.7;100.0
22674;DHT22;11504;43.334;21.918;2022-08-25T02:36:02;21.7;100.0
22674;DHT22;11504;43.334;21.918;2022-08-25T02:40:41;21.7;100.0
22674;DHT22;11504;43.334;21.918;2022-08-25T02:45:18;21.7;100.0
22674;DHT22;11504;43.334;21.918;2022-08-25T02:49:55;21.6;100.0
22674;DHT22;11504;43.334;21.918;2022-08-25T02:54:32;21.6;100.0
22674;DHT22;11504;43.334;21.918;2022-08-25T02:59:10;21.6;100.0
22674;DHT22;11504;43.334;21.918;2022-08-25T03:03:47;21.6;100.0
22674;DHT22;11504;43.334;21.918;2022-08-25T03:08:29;21.6;100.0
22674;DHT22;11504;43.334;21.918;2022-08-25T03:13:05;21.6;100.0
22674;DHT22;11504;43.334;21.918;2022-08-25T03:17:42;21.6;100.0
22674;DHT22;11504;43.334;21.918;2022-08-25T03:22:22;21.6;100.0
22674;DHT22;11504;43.334;21.918;2022-08-25T03:26:59;21.6;100.0
22674;DHT22;11504;43.334;21.918;2022-08-25T03:31:36;21.6;100.0
22674;DHT22;11504;43.334;21.918;2022-08-25T03:36:13;21.5;100.0
22674;DHT22;11504;43.334;21.918;2022-08-25T03:40:51;21.5;100.0
22674;DHT22;11504;43.334;21.918;2022-08-25T03:45:29;21.6;100.0
22674;DHT22;11504;43.334;21.918;2022-08-25T03:50:09;21.6;100.0
22674;DHT22;11504;43.334;21.918;2022-08-25T03:54:51;21.6;100.0
22674;DHT22;11504;43.334;21.918;2022-08-25T03:59:28;21.6;100.0
22674;DHT22;11504;43.334;21.918;2022-08-25T04:04:07;21.6;100.0
22674;DHT22;11504;43.334;21.918;2022-08-25T04:08:50;21.6;100.0
22674;DHT22;11504;43.334;21.918;2022-08-25T04:13:28;21.6;100.0
22674;DHT22;11504;43.334;21.918;2022-08-25T04:18:05;21.7;100.0
22674;DHT22;11504;43.334;21.918;2022-08-25T04:22:42;21.7;100.0
22674;DHT22;11504;43.334;21.918;2022-08-25T04:27:20;21.8;100.0
22674;DHT22;11504;43.334;21.918;2022-08-25T04:31:58;21.8;100.0
22674;DHT22;11504;43.334;21.918;2022-08-25T04:36:36;21.9;100.0
22674;DHT22;11504;43.334;21.918;2022-08-25T04:41:18;21.9;100.0
22674;DHT22;11504;43.334;21.918;2022-08-25T04:46:04;22.0;100.0
22674;DHT22;11504;43.334;21.918;2022-08-25T04:50:57;22.0;100.0
22674;DHT22;11504;43.334;21.918;2022-08-25T04:55:49;22.0;100.0
22674;DHT22;11504;43.334;21.918;2022-08-25T05:00:26;22.0;100.0
22674;DHT22;11504;43.334;21.918;2022-08-25T05:05:03;22.0;100.0
22674;DHT22;11504;43.334;21.918;2022-08-25T05:09:42;22.0;100.0
22674;DHT22;11504;43.334;21.918;2022-08-25T05:14:19;22.0;100.0
22674;DHT22;11504;43.334;21.918;2022-08-25T05:18:58;22.0;100.0
22674;DHT22;11504;43.334;21.918;2022-08-25T05:23:36;22.0;100.0
22674;DHT22;11504;43.334;21.918;2022-08-25T05:28:15;22.0;100.0
22674;DHT22;11504;43.334;21.918;2022-08-25T05:32:55;22.0;100.0
22674;DHT22;11504;43.334;21.918;2022-08-25T05:37:32;22.1;100.0
22674;DHT22;11504;43.334;21.918;2022-08-25T05:42:08;22.1;100.0
22674;DHT22;11504;43.334;21.918;2022-08-25T05:46:45;22.1;100.0
22674;DHT22;11504;43.334;21.918;2022-08-25T05:51:21;22.1;100.0
22674;DHT22;11504;43.334;21.918;2022-08-25T05:56:00;22.1;100.0
22674;DHT22;11504;43.334;21.918;2022-08-25T06:00:38;22.1;100.0
22674;DHT22;11504;43.334;21.918;2022-08-25T06:05:19;22.1;100.0
22674;DHT22;11504;43.334;21.918;2022-08-25T06:09:58;22.3;100.0
22674;DHT22;11504;43.334;21.918;2022-08-25T06:14:34;22.3;100.0
22674;DHT22;11504;43.334;21.918;2022-08-25T06:19:11;22.5;100.0
22674;DHT22;11504;43.334;21.918;2022-08-25T06:23:47;22.5;100.0
22674;DHT22;11504;43.334;21.918;2022-08-25T06:28:24;22.6;100.0
22674;DHT22;11504;43.334;21.918;2022-08-25T06:33:01;22.6;100.0
22674;DHT22;11504;43.334;21.918;2022-08-25T06:37:38;22.6;100.0
22674;DHT22;11504;43.334;21.918;2022-08-25T06:42:15;22.6;100.0
22674;DHT22;11504;43.334;21.918;2022-08-25T06:46:52;22.6;100.0
22674;DHT22;11504;43.334;21.918;2022-08-25T06:51:29;22.6;100.0
22674;DHT22;11504;43.334;21.918;2022-08-25T06:56:07;22.6;100.0
22674;DHT22;11504;43.334;21.918;2022-08-25T07:00:48;22.6;100.0
22674;DHT22;11504;43.334;21.918;2022-08-25T07:05:25;22.6;100.0
22674;DHT22;11504;43.334;21.918;2022-08-25T07:10:07;22.6;100.0
22674;DHT22;11504;43.334;21.918;2022-08-25T07:14:47;22.6;100.0
22674;DHT22;11504;43.334;21.918;2022-08-25T07:19:25;22.6;100.0
22674;DHT22;11504;43.334;21.918;2022-08-25T07:24:04;22.6;100.0
22674;DHT22;11504;43.334;21.918;2022-08-25T07:28:50;22.6;100.0
22674;DHT22;11504;43.334;21.918;2022-08-25T07:33:30;22.6;100.0
22674;DHT22;11504;43.334;21.918;2022-08-25T07:38:09;22.7;100.0
22674;DHT22;11504;43.334;21.918;2022-08-25T07:42:47;22.7;100.0
22674;DHT22;11504;43.334;21.918;2022-08-25T07:47:33;22.8;100.0
22674;DHT22;11504;43.334;21.918;2022-08-25T07:52:10;22.8;100.0
22674;DHT22;11504;43.334;21.918;2022-08-25T07:56:46;22.8;100.0
22674;DHT22;11504;43.334;21.918;2022-08-25T08:01:23;22.8;100.0
22674;DHT22;11504;43.334;21.918;2022-08-25T08:06:06;23.2;100.0
22674;DHT22;11504;43.334;21.918;2022-08-25T08:10:55;23.2;100.0
22674;DHT22;11504;43.334;21.918;2022-08-25T08:15:31;23.2;100.0
22674;DHT22;11504;43.334;21.918;2022-08-25T08:20:10;23.6;100.0
22674;DHT22;11504;43.334;21.918;2022-08-25T08:24:47;23.6;100.0
22674;DHT22;11504;43.334;21.918;2022-08-25T08:29:24;24.1;100.0
22674;DHT22;11504;43.334;21.918;2022-08-25T08:34:01;24.1;100.0
22674;DHT22;11504;43.334;21.918;2022-08-25T08:38:39;24.6;100.0
22674;DHT22;11504;43.334;21.918;2022-08-25T08:43:20;24.6;100.0
22674;DHT22;11504;43.334;21.918;2022-08-25T08:48:11;25.0;100.0
22674;DHT22;11504;43.334;21.918;2022-08-25T08:53:43;25.0;100.0
22674;DHT22;11504;43.334;21.918;2022-08-25T08:58:45;25.3;100.0
22674;DHT22;11504;43.334;21.918;2022-08-25T09:03:36;25.3;100.0
22674;DHT22;11504;43.334;21.918;2022-08-25T09:08:21;26.4;100.0
22674;DHT22;11504;43.334;21.918;2022-08-25T09:13:02;26.4;100.0
22674;DHT22;11504;43.334;21.918;2022-08-25T09:18:36;27.5;100.0
22674;DHT22;11504;43.334;21.918;2022-08-25T09:24:18;27.5;100.0
22674;DHT22;11504;43.334;21.918;2022-08-25T09:29:56;28.3;100.0
22674;DHT22;11504;43.334;21.918;2022-08-25T09:34:51;28.3;100.0
22674;DHT22;11504;43.334;21.918;2022-08-25T09:39:31;29.1;100.0
22674;DHT22;11504;43.334;21.918;2022-08-25T09:44:16;29.1;100.0
22674;DHT22;11504;43.334;21.918;2022-08-25T09:49:20;29.6;100.0
22674;DHT22;11504;43.334;21.918;2022-08-25T09:54:19;29.6;100.0
22674;DHT22;11504;43.334;21.918;2022-08-25T09:59:19;30.2;100.0
22674;DHT22;11504;43.334;21.918;2022-08-25T10:04:12;30.2;100.0
22674;DHT22;11504;43.334;21.918;2022-08-25T10:08:54;30.2;100.0
22674;DHT22;11504;43.334;21.918;2022-08-25T10:14:00;30.2;100.0
22674;DHT22;11504;43.334;21.918;2022-08-25T10:19:22;30.3;100.0
22674;DHT22;11504;43.334;21.918;2022-08-25T10:24:07;30.3;100.0
22674;DHT22;11504;43.334;21.918;2022-08-25T10:28:59;30.3;100.0
22674;DHT22;11504;43.334;21.918;2022-08-25T10:34:55;30.3;100.0
22674;DHT22;11504;43.334;21.918;2022-08-25T10:39:59;30.3;100.0
22674;DHT22;11504;43.334;21.918;2022-08-25T10:45:16;30.3;100.0
22674;DHT22;11504;43.334;21.918;2022-08-25T10:50:10;30.2;100.0
22674;DHT22;11504;43.334;21.918;2022-08-25T10:55:19;30.2;100.0
22674;DHT22;11504;43.334;21.918;2022-08-25T11:00:26;30.1;100.0
22674;DHT22;11504;43.334;21.918;2022-08-25T11:05:27;30.1;100.0
22674;DHT22;11504;43.334;21.918;2022-08-25T11:10:26;29.8;100.0
22674;DHT22;11504;43.334;21.918;2022-08-25T11:15:30;29.8;100.0
22674;DHT22;11504;43.334;21.918;2022-08-25T11:20:32;29.6;100.0
22674;DHT22;11504;43.334;21.918;2022-08-25T11:25:40;29.6;100.0
22674;DHT22;11504;43.334;21.918;2022-08-25T11:30:28;29.3;100.0
22674;DHT22;11504;43.334;21.918;2022-08-25T11:35:07;29.3;100.0
22674;DHT22;11504;43.334;21.918;2022-08-25T11:40:13;29.0;100.0
22674;DHT22;11504;43.334;21.918;2022-08-25T11:45:50;29.0;100.0
22674;DHT22;11504;43.334;21.918;2022-08-25T11:51:29;28.8;100.0
22674;DHT22;11504;43.334;21.918;2022-08-25T11:56:31;28.7;100.0
22674;DHT22;11504;43.334;21.918;2022-08-25T12:04:10;28.7;100.0
22674;DHT22;11504;43.334;21.918;2022-08-25T12:09:19;28.7;100.0
22674;DHT22;11504;43.334;21.918;2022-08-25T12:14:10;28.7;100.0
22674;DHT22;11504;43.334;21.918;2022-08-25T12:19:26;28.7;100.0
22674;DHT22;11504;43.334;21.918;2022-08-25T12:24:48;28.7;100.0
22674;DHT22;11504;43.334;21.918;2022-08-25T12:30:51;28.8;100.0
22674;DHT22;11504;43.334;21.918;2022-08-25T12:36:35;29.0;100.0
22674;DHT22;11504;43.334;21.918;2022-08-25T12:41:22;29.0;100.0
22674;DHT22;11504;43.334;21.918;2022-08-25T12:46:37;29.0;100.0
22674;DHT22;11504;43.334;21.918;2022-08-25T12:51:21;29.0;100.0
22674;DHT22;11504;43.334;21.918;2022-08-25T12:56:44;29.1;100.0
22674;DHT22;11504;43.334;21.918;2022-08-25T13:02:10;29.1;100.0
22674;DHT22;11504;43.334;21.918;2022-08-25T13:08:49;29.2;100.0
22674;DHT22;11504;43.334;21.918;2022-08-25T13:14:57;29.2;100.0
22674;DHT22;11504;43.334;21.918;2022-08-25T13:19:35;29.2;100.0
22674;DHT22;11504;43.334;21.918;2022-08-25T13:24:18;29.2;100.0
22674;DHT22;11504;43.334;21.918;2022-08-25T13:29:13;29.4;100.0
22674;DHT22;11504;43.334;21.918;2022-08-25T13:34:03;29.4;100.0
22674;DHT22;11504;43.334;21.918;2022-08-25T13:39:10;29.5;100.0
22674;DHT22;11504;43.334;21.918;2022-08-25T13:43:54;29.5;100.0
22674;DHT22;11504;43.334;21.918;2022-08-25T13:48:34;29.4;100.0
22674;DHT22;11504;43.334;21.918;2022-08-25T13:53:21;29.4;100.0
22674;DHT22;11504;43.334;21.918;2022-08-25T13:58:04;29.3;100.0
22674;DHT22;11504;43.334;21.918;2022-08-25T14:02:58;29.3;100.0
22674;DHT22;11504;43.334;21.918;2022-08-25T14:07:40;29.2;100.0
22674;DHT22;11504;43.334;21.918;2022-08-25T14:12:35;29.2;100.0
22674;DHT22;11504;43.334;21.918;2022-08-25T14:17:22;29.2;100.0
22674;DHT22;11504;43.334;21.918;2022-08-25T14:22:00;29.2;100.0
22674;DHT22;11504;43.334;21.918;2022-08-25T14:26:38;29.1;100.0
22674;DHT22;11504;43.334;21.918;2022-08-25T14:31:23;29.1;100.0
22674;DHT22;11504;43.334;21.918;2022-08-25T14:36:15;29.0;100.0
22674;DHT22;11504;43.334;21.918;2022-08-25T14:40:53;29.0;100.0
22674;DHT22;11504;43.334;21.918;2022-08-25T14:45:30;29.0;100.0
22674;DHT22;11504;43.334;21.918;2022-08-25T14:50:19;29.0;100.0
22674;DHT22;11504;43.334;21.918;2022-08-25T14:54:58;29.0;100.0
22674;DHT22;11504;43.334;21.918;2022-08-25T14:59:36;28.9;100.0
22674;DHT22;11504;43.334;21.918;2022-08-25T15:04:16;28.9;100.0
22674;DHT22;11504;43.334;21.918;2022-08-25T15:09:05;28.8;100.0
22674;DHT22;11504;43.334;21.918;2022-08-25T15:13:51;28.8;100.0
22674;DHT22;11504;43.334;21.918;2022-08-25T15:18:32;28.8;100.0
22674;DHT22;11504;43.334;21.918;2022-08-25T15:23:11;28.8;100.0
22674;DHT22;11504;43.334;21.918;2022-08-25T15:27:49;28.6;100.0
22674;DHT22;11504;43.334;21.918;2022-08-25T15:32:28;28.6;100.0
22674;DHT22;11504;43.334;21.918;2022-08-25T15:37:08;28.4;100.0
22674;DHT22;11504;43.334;21.918;2022-08-25T15:41:52;28.4;100.0
22674;DHT22;11504;43.334;21.918;2022-08-25T15:46:30;28.3;100.0
22674;DHT22;11504;43.334;21.918;2022-08-25T15:51:14;28.3;100.0
22674;DHT22;11504;43.334;21.918;2022-08-25T15:55:54;28.3;100.0
22674;DHT22;11504;43.334;21.918;2022-08-25T16:00:31;28.2;100.0
22674;DHT22;11504;43.334;21.918;2022-08-25T16:05:09;28.2;100.0
22674;DHT22;11504;43.334;21.918;2022-08-25T16:09:46;28.0;100.0
22674;DHT22;11504;43.334;21.918;2022-08-25T16:14:23;28.0;100.0
22674;DHT22;11504;43.334;21.918;2022-08-25T16:19:00;27.9;100.0
22674;DHT22;11504;43.334;21.918;2022-08-25T16:23:39;27.9;100.0
22674;DHT22;11504;43.334;21.918;2022-08-25T16:28:16;27.8;100.0
22674;DHT22;11504;43.334;21.918;2022-08-25T16:32:54;27.8;100.0
22674;DHT22;11504;43.334;21.918;2022-08-25T16:37:31;27.6;100.0
22674;DHT22;11504;43.334;21.918;2022-08-25T16:42:11;27.6;100.0
22674;DHT22;11504;43.334;21.918;2022-08-25T16:46:49;27.4;100.0
22674;DHT22;11504;43.334;21.918;2022-08-25T16:51:27;27.4;100.0
22674;DHT22;11504;43.334;21.918;2022-08-25T16:56:06;27.2;100.0
22674;DHT22;11504;43.334;21.918;2022-08-25T17:00:44;27.2;100.0
22674;DHT22;11504;43.334;21.918;2022-08-25T17:05:20;27.2;100.0
22674;DHT22;11504;43.334;21.918;2022-08-25T17:09:57;27.0;100.0
22674;DHT22;11504;43.334;21.918;2022-08-25T17:14:36;27.0;100.0
22674;DHT22;11504;43.334;21.918;2022-08-25T17:19:13;26.9;100.0
22674;DHT22;11504;43.334;21.918;2022-08-25T17:23:52;26.9;100.0
22674;DHT22;11504;43.334;21.918;2022-08-25T17:28:32;26.7;100.0
22674;DHT22;11504;43.334;21.918;2022-08-25T17:33:10;26.7;100.0
22674;DHT22;11504;43.334;21.918;2022-08-25T17:37:52;26.5;100.0
22674;DHT22;11504;43.334;21.918;2022-08-25T17:42:29;26.5;100.0
22674;DHT22;11504;43.334;21.918;2022-08-25T17:47:07;26.4;100.0
22674;DHT22;11504;43.334;21.918;2022-08-25T17:51:45;26.4;100.0
22674;DHT22;11504;43.334;21.918;2022-08-25T17:56:24;26.2;100.0
22674;DHT22;11504;43.334;21.918;2022-08-25T18:01:05;26.2;100.0
22674;DHT22;11504;43.334;21.918;2022-08-25T18:06:02;26.2;100.0
22674;DHT22;11504;43.334;21.918;2022-08-25T18:10:43;26.0;100.0
22674;DHT22;11504;43.334;21.918;2022-08-25T18:15:24;26.0;100.0
22674;DHT22;11504;43.334;21.918;2022-08-25T18:20:06;25.9;100.0
22674;DHT22;11504;43.334;21.918;2022-08-25T18:24:50;25.9;100.0
22674;DHT22;11504;43.334;21.918;2022-08-25T18:29:28;25.8;100.0
22674;DHT22;11504;43.334;21.918;2022-08-25T18:34:05;25.8;100.0
22674;DHT22;11504;43.334;21.918;2022-08-25T18:38:42;25.7;100.0
22674;DHT22;11504;43.334;21.918;2022-08-25T18:43:19;25.7;100.0
22674;DHT22;11504;43.334;21.918;2022-08-25T18:47:57;25.6;100.0
22674;DHT22;11504;43.334;21.918;2022-08-25T18:52:35;25.6;100.0
22674;DHT22;11504;43.334;21.918;2022-08-25T18:57:12;25.5;100.0
22674;DHT22;11504;43.334;21.918;2022-08-25T19:01:49;25.5;100.0
22674;DHT22;11504;43.334;21.918;2022-08-25T19:06:28;25.4;100.0
22674;DHT22;11504;43.334;21.918;2022-08-25T19:11:08;25.4;100.0
22674;DHT22;11504;43.334;21.918;2022-08-25T19:15:45;25.4;100.0
22674;DHT22;11504;43.334;21.918;2022-08-25T19:20:23;25.4;100.0
22674;DHT22;11504;43.334;21.918;2022-08-25T19:25:06;25.4;100.0
22674;DHT22;11504;43.334;21.918;2022-08-25T19:29:47;25.3;100.0
22674;DHT22;11504;43.334;21.918;2022-08-25T19:34:28;25.3;100.0
22674;DHT22;11504;43.334;21.918;2022-08-25T19:39:20;25.2;100.0
22674;DHT22;11504;43.334;21.918;2022-08-25T19:44:00;25.2;100.0
22674;DHT22;11504;43.334;21.918;2022-08-25T19:48:39;25.2;100.0
22674;DHT22;11504;43.334;21.918;2022-08-25T19:53:17;25.2;100.0
22674;DHT22;11504;43.334;21.918;2022-08-25T19:57:55;25.1;100.0
22674;DHT22;11504;43.334;21.918;2022-08-25T20:02:35;25.1;100.0
22674;DHT22;11504;43.334;21.918;2022-08-25T20:07:12;25.0;100.0
22674;DHT22;11504;43.334;21.918;2022-08-25T20:11:56;25.0;100.0
22674;DHT22;11504;43.334;21.918;2022-08-25T20:16:33;25.0;100.0
22674;DHT22;11504;43.334;21.918;2022-08-25T20:21:13;25.0;100.0
22674;DHT22;11504;43.334;21.918;2022-08-25T20:25:50;25.0;100.0
22674;DHT22;11504;43.334;21.918;2022-08-25T20:30:29;24.8;100.0
22674;DHT22;11504;43.334;21.918;2022-08-25T20:35:09;24.8;100.0
22674;DHT22;11504;43.334;21.918;2022-08-25T20:39:53;24.7;100.0
22674;DHT22;11504;43.334;21.918;2022-08-25T20:44:31;24.7;100.0
22674;DHT22;11504;43.334;21.918;2022-08-25T20:49:14;24.5;100.0
22674;DHT22;11504;43.334;21.918;2022-08-25T20:53:52;24.5;100.0
22674;DHT22;11504;43.334;21.918;2022-08-25T20:58:30;24.3;100.0
22674;DHT22;11504;43.334;21.918;2022-08-25T21:03:07;24.3;100.0
22674;DHT22;11504;43.334;21.918;2022-08-25T21:07:45;24.0;100.0
22674;DHT22;11504;43.334;21.918;2022-08-25T21:12:22;24.0;100.0
22674;DHT22;11504;43.334;21.918;2022-08-25T21:16:59;23.7;100.0
22674;DHT22;11504;43.334;21.918;2022-08-25T21:21:36;23.7;100.0
22674;DHT22;11504;43.334;21.918;2022-08-25T21:26:17;23.7;100.0
22674;DHT22;11504;43.334;21.918;2022-08-25T21:31:04;23.5;100.0
22674;DHT22;11504;43.334;21.918;2022-08-25T21:35:44;23.5;100.0
22674;DHT22;11504;43.334;21.918;2022-08-25T21:40:21;23.3;100.0
22674;DHT22;11504;43.334;21.918;2022-08-25T21:44:58;23.3;100.0
22674;DHT22;11504;43.334;21.918;2022-08-25T21:49:34;23.2;100.0
22674;DHT22;11504;43.334;21.918;2022-08-25T21:54:13;23.2;100.0
22674;DHT22;11504;43.334;21.918;2022-08-25T21:58:53;23.2;100.0
22674;DHT22;11504;43.334;21.918;2022-08-25T22:03:30;23.2;100.0
22674;DHT22;11504;43.334;21.918;2022-08-25T22:08:08;23.2;100.0
22674;DHT22;11504;43.334;21.918;2022-08-25T22:12:46;23.2;100.0
22674;DHT22;11504;43.334;21.918;2022-08-25T22:17:24;23.1;100.0
22674;DHT22;11504;43.334;21.918;2022-08-25T22:22:00;23.1;100.0
22674;DHT22;11504;43.334;21.918;2022-08-25T22:26:38;23.0;100.0
22674;DHT22;11504;43.334;21.918;2022-08-25T22:31:16;23.0;100.0
22674;DHT22;11504;43.334;21.918;2022-08-25T22:35:54;23.0;100.0
22674;DHT22;11504;43.334;21.918;2022-08-25T22:40:33;22.9;100.0
22674;DHT22;11504;43.334;21.918;2022-08-25T22:45:16;22.9;100.0
22674;DHT22;11504;43.334;21.918;2022-08-25T22:49:54;22.8;100.0
22674;DHT22;11504;43.334;21.918;2022-08-25T22:54:34;22.8;100.0
22674;DHT22;11504;43.334;21.918;2022-08-25T22:59:14;22.8;100.0
22674;DHT22;11504;43.334;21.918;2022-08-25T23:03:50;22.8;100.0
22674;DHT22;11504;43.334;21.918;2022-08-25T23:08:28;22.7;100.0
22674;DHT22;11504;43.334;21.918;2022-08-25T23:13:06;22.7;100.0
22674;DHT22;11504;43.334;21.918;2022-08-25T23:17:43;22.6;100.0
22674;DHT22;11504;43.334;21.918;2022-08-25T23:22:21;22.6;100.0
22674;DHT22;11504;43.334;21.918;2022-08-25T23:27:00;22.6;100.0
22674;DHT22;11504;43.334;21.918;2022-08-25T23:31:55;22.6;100.0
22674;DHT22;11504;43.334;21.918;2022-08-25T23:36:37;22.6;100.0
22674;DHT22;11504;43.334;21.918;2022-08-25T23:41:19;22.6;100.0
22674;DHT22;11504;43.334;21.918;2022-08-25T23:46:03;22.6;100.0
22674;DHT22;11504;43.334;21.918;2022-08-25T23:50:45;22.5;100.0
22674;DHT22;11504;43.334;21.918;2022-08-25T23:55:24;22.5;100.0
